sensor_id;sensor_type;location;lat;lon;timestamp;pressure;altitude;pressure_sealevel;temperature;humidity
16100;BME280;8154;50.830;12.082;2022-11-20T00:00:00;99059.72;;;20.76;38.68
16100;BME280;8154;50.830;12.082;2022-11-20T00:02:45;99063.19;;;20.77;38.75
16100;BME280;8154;50.830;12.082;2022-11-20T00:05:32;99061.28;;;20.71;38.75
16100;BME280;8154;50.830;12.082;2022-11-20T00:08:16;99058.38;;;20.66;39.01
16100;BME280;8154;50.830;12.082;2022-11-20T00:11:10;99058.63;;;20.71;38.86
16100;BME280;8154;50.830;12.082;2022-11-20T00:13:57;99054.50;;;20.68;38.92
16100;BME280;8154;50.830;12.082;2022-11-20T00:16:42;99055.97;;;20.71;38.89
16100;BME280;8154;50.830;12.082;2022-11-20T00:19:26;99049.19;;;20.68;38.84
16100;BME280;8154;50.830;12.082;2022-11-20T00:22:10;99052.31;;;20.72;38.76
16100;BME280;8154;50.830;12.082;2022-11-20T00:24:54;99051.47;;;20.71;38.83
16100;BME280;8154;50.830;12.082;2022-11-20T00:27:41;99049.75;;;20.64;38.92
16100;BME280;8154;50.830;12.082;2022-11-20T00:30:25;99047.84;;;20.58;38.94
16100;BME280;8154;50.830;12.082;2022-11-20T00:33:10;99051.59;;;20.63;38.79
16100;BME280;8154;50.830;12.082;2022-11-20T00:35:59;99047.94;;;20.64;38.85
16100;BME280;8154;50.830;12.082;2022-11-20T00:38:44;99045.47;;;20.63;38.84
16100;BME280;8154;50.830;12.082;2022-11-20T00:41:29;99046.91;;;20.65;38.87
16100;BME280;8154;50.830;12.082;2022-11-20T00:44:13;99040.78;;;20.65;38.81
16100;BME280;8154;50.830;12.082;2022-11-20T00:46:57;99050.59;;;20.64;38.81
16100;BME280;8154;50.830;12.082;2022-11-20T00:49:42;99044.44;;;20.64;38.67
16100;BME280;8154;50.830;12.082;2022-11-20T00:52:26;99041.34;;;20.60;38.99
16100;BME280;8154;50.830;12.082;2022-11-20T00:55:10;99035.69;;;20.63;38.71
16100;BME280;8154;50.830;12.082;2022-11-20T00:57:54;99043.44;;;20.65;38.68
16100;BME280;8154;50.830;12.082;2022-11-20T01:00:38;99033.63;;;20.65;38.69
16100;BME280;8154;50.830;12.082;2022-11-20T01:03:22;99039.50;;;20.61;38.82
16100;BME280;8154;50.830;12.082;2022-11-20T01:06:22;99038.34;;;20.63;38.87
16100;BME280;8154;50.830;12.082;2022-11-20T01:09:11;99039.13;;;20.64;38.77
16100;BME280;8154;50.830;12.082;2022-11-20T01:11:58;99034.28;;;20.67;38.65
16100;BME280;8154;50.830;12.082;2022-11-20T01:14:43;99036.75;;;20.69;38.66
16100;BME280;8154;50.830;12.082;2022-11-20T01:17:27;99043.06;;;20.68;38.60
16100;BME280;8154;50.830;12.082;2022-11-20T01:20:11;99033.25;;;20.68;38.66
16100;BME280;8154;50.830;12.082;2022-11-20T01:22:55;99032.84;;;20.65;38.62
16100;BME280;8154;50.830;12.082;2022-11-20T01:25:39;99040.78;;;20.65;38.67
16100;BME280;8154;50.830;12.082;2022-11-20T01:28:23;99037.50;;;20.63;38.70
16100;BME280;8154;50.830;12.082;2022-11-20T01:31:16;99043.19;;;20.60;38.70
16100;BME280;8154;50.830;12.082;2022-11-20T01:34:04;99043.44;;;20.65;38.61
16100;BME280;8154;50.830;12.082;2022-11-20T01:36:49;99030.19;;;20.65;38.62
16100;BME280;8154;50.830;12.082;2022-11-20T01:39:33;99034.00;;;20.62;38.60
16100;BME280;8154;50.830;12.082;2022-11-20T01:42:17;99022.41;;;20.63;38.50
16100;BME280;8154;50.830;12.082;2022-11-20T01:49:01;99019.19;;;20.68;38.44
16100;BME280;8154;50.830;12.082;2022-11-20T01:51:50;99012.75;;;20.62;38.60
16100;BME280;8154;50.830;12.082;2022-11-20T01:54:53;99006.28;;;20.65;38.63
16100;BME280;8154;50.830;12.082;2022-11-20T01:57:40;99006.19;;;20.58;38.70
16100;BME280;8154;50.830;12.082;2022-11-20T02:00:24;99004.28;;;20.52;38.85
16100;BME280;8154;50.830;12.082;2022-11-20T02:03:13;98993.97;;;20.43;39.04
16100;BME280;8154;50.830;12.082;2022-11-20T02:09:02;99003.28;;;20.53;38.64
16100;BME280;8154;50.830;12.082;2022-11-20T02:11:46;99005.94;;;20.53;38.79
16100;BME280;8154;50.830;12.082;2022-11-20T02:14:30;99003.72;;;20.57;38.53
16100;BME280;8154;50.830;12.082;2022-11-20T02:17:15;99004.00;;;20.62;38.49
16100;BME280;8154;50.830;12.082;2022-11-20T02:19:59;98999.06;;;20.59;38.55
16100;BME280;8154;50.830;12.082;2022-11-20T02:23:12;98999.19;;;20.51;38.77
16100;BME280;8154;50.830;12.082;2022-11-20T02:26:02;98995.22;;;20.47;38.83
16100;BME280;8154;50.830;12.082;2022-11-20T02:28:48;99000.81;;;20.52;38.72
16100;BME280;8154;50.830;12.082;2022-11-20T02:31:38;99000.44;;;20.55;38.59
16100;BME280;8154;50.830;12.082;2022-11-20T02:34:24;98999.44;;;20.56;38.54
16100;BME280;8154;50.830;12.082;2022-11-20T02:37:08;99000.16;;;20.50;38.62
16100;BME280;8154;50.830;12.082;2022-11-20T02:39:53;98996.16;;;20.54;38.54
16100;BME280;8154;50.830;12.082;2022-11-20T02:42:37;99002.63;;;20.51;38.50
16100;BME280;8154;50.830;12.082;2022-11-20T02:45:22;99009.91;;;20.43;38.83
16100;BME280;8154;50.830;12.082;2022-11-20T02:48:09;99001.28;;;20.41;38.85
16100;BME280;8154;50.830;12.082;2022-11-20T02:50:53;98992.94;;;20.44;38.85
16100;BME280;8154;50.830;12.082;2022-11-20T02:53:37;98989.50;;;20.43;38.72
16100;BME280;8154;50.830;12.082;2022-11-20T02:56:21;98995.59;;;20.44;38.68
16100;BME280;8154;50.830;12.082;2022-11-20T02:59:06;99002.81;;;20.50;38.54
16100;BME280;8154;50.830;12.082;2022-11-20T03:01:50;99001.81;;;20.51;38.63
16100;BME280;8154;50.830;12.082;2022-11-20T03:04:34;98997.97;;;20.53;38.54
16100;BME280;8154;50.830;12.082;2022-11-20T03:07:18;99000.16;;;20.50;38.47
16100;BME280;8154;50.830;12.082;2022-11-20T03:10:03;98990.69;;;20.41;38.62
16100;BME280;8154;50.830;12.082;2022-11-20T03:12:53;98979.31;;;20.47;38.54
16100;BME280;8154;50.830;12.082;2022-11-20T03:15:38;98976.47;;;20.48;38.57
16100;BME280;8154;50.830;12.082;2022-11-20T03:18:22;98973.38;;;20.45;38.60
16100;BME280;8154;50.830;12.082;2022-11-20T03:21:07;98971.16;;;20.48;38.49
16100;BME280;8154;50.830;12.082;2022-11-20T03:23:51;98966.69;;;20.49;38.44
16100;BME280;8154;50.830;12.082;2022-11-20T03:26:34;98962.19;;;20.49;38.44
16100;BME280;8154;50.830;12.082;2022-11-20T03:29:19;98965.28;;;20.53;38.48
16100;BME280;8154;50.830;12.082;2022-11-20T03:32:03;98971.59;;;20.52;38.23
16100;BME280;8154;50.830;12.082;2022-11-20T03:34:48;98969.53;;;20.47;38.53
16100;BME280;8154;50.830;12.082;2022-11-20T03:37:32;98960.53;;;20.48;38.49
16100;BME280;8154;50.830;12.082;2022-11-20T03:40:16;98961.75;;;20.46;38.51
16100;BME280;8154;50.830;12.082;2022-11-20T03:43:00;98960.13;;;20.45;38.50
16100;BME280;8154;50.830;12.082;2022-11-20T03:45:44;98960.72;;;20.47;38.47
16100;BME280;8154;50.830;12.082;2022-11-20T03:48:29;98956.06;;;20.49;38.61
16100;BME280;8154;50.830;12.082;2022-11-20T03:51:18;98960.16;;;20.51;38.34
16100;BME280;8154;50.830;12.082;2022-11-20T03:54:07;98958.34;;;20.52;38.38
16100;BME280;8154;50.830;12.082;2022-11-20T03:56:51;98959.75;;;20.48;38.34
16100;BME280;8154;50.830;12.082;2022-11-20T03:59:36;98962.38;;;20.48;38.36
16100;BME280;8154;50.830;12.082;2022-11-20T04:02:20;98957.66;;;20.43;38.61
16100;BME280;8154;50.830;12.082;2022-11-20T04:05:06;98955.59;;;20.45;38.53
16100;BME280;8154;50.830;12.082;2022-11-20T04:07:50;98951.97;;;20.46;38.33
16100;BME280;8154;50.830;12.082;2022-11-20T04:10:35;98951.78;;;20.48;38.35
16100;BME280;8154;50.830;12.082;2022-11-20T04:13:18;98952.91;;;20.39;38.47
16100;BME280;8154;50.830;12.082;2022-11-20T04:16:04;98950.97;;;20.33;38.67
16100;BME280;8154;50.830;12.082;2022-11-20T04:18:56;98948.00;;;20.42;38.43
16100;BME280;8154;50.830;12.082;2022-11-20T04:21:42;98940.44;;;20.39;38.43
16100;BME280;8154;50.830;12.082;2022-11-20T04:24:26;98946.75;;;20.38;38.57
16100;BME280;8154;50.830;12.082;2022-11-20T04:27:10;98940.16;;;20.34;38.64
16100;BME280;8154;50.830;12.082;2022-11-20T04:29:55;98943.72;;;20.41;38.32
16100;BME280;8154;50.830;12.082;2022-11-20T04:32:39;98951.50;;;20.43;38.35
16100;BME280;8154;50.830;12.082;2022-11-20T04:35:23;98951.13;;;20.46;38.38
16100;BME280;8154;50.830;12.082;2022-11-20T04:38:07;98946.19;;;20.43;38.29
16100;BME280;8154;50.830;12.082;2022-11-20T04:40:59;98943.53;;;20.43;38.46
16100;BME280;8154;50.830;12.082;2022-11-20T04:43:52;98941.72;;;20.43;38.38
16100;BME280;8154;50.830;12.082;2022-11-20T04:46:42;98941.66;;;20.37;38.53
16100;BME280;8154;50.830;12.082;2022-11-20T04:49:26;98942.09;;;20.40;38.43
16100;BME280;8154;50.830;12.082;2022-11-20T04:52:10;98940.25;;;20.41;38.50
16100;BME280;8154;50.830;12.082;2022-11-20T04:54:54;98942.91;;;20.41;38.41
16100;BME280;8154;50.830;12.082;2022-11-20T04:57:38;98941.84;;;20.35;38.38
16100;BME280;8154;50.830;12.082;2022-11-20T05:00:23;98941.06;;;20.41;38.36
16100;BME280;8154;50.830;12.082;2022-11-20T05:03:07;98941.66;;;20.37;38.44
16100;BME280;8154;50.830;12.082;2022-11-20T05:05:51;98941.84;;;20.35;38.43
16100;BME280;8154;50.830;12.082;2022-11-20T05:08:35;98935.03;;;20.33;38.69
16100;BME280;8154;50.830;12.082;2022-11-20T05:11:20;98933.03;;;20.35;38.58
16100;BME280;8154;50.830;12.082;2022-11-20T05:14:04;98932.00;;;20.36;38.42
16100;BME280;8154;50.830;12.082;2022-11-20T05:16:49;98927.34;;;20.38;38.33
16100;BME280;8154;50.830;12.082;2022-11-20T05:19:33;98924.69;;;20.38;38.37
16100;BME280;8154;50.830;12.082;2022-11-20T05:22:18;98921.41;;;20.36;38.34
16100;BME280;8154;50.830;12.082;2022-11-20T05:25:03;98929.63;;;20.41;38.14
16100;BME280;8154;50.830;12.082;2022-11-20T05:27:47;98925.91;;;20.35;38.43
16100;BME280;8154;50.830;12.082;2022-11-20T05:30:31;98932.22;;;20.34;38.46
16100;BME280;8154;50.830;12.082;2022-11-20T05:33:15;98934.94;;;20.41;38.12
16100;BME280;8154;50.830;12.082;2022-11-20T05:36:01;98931.84;;;20.37;38.44
16100;BME280;8154;50.830;12.082;2022-11-20T05:38:45;98921.97;;;20.31;38.40
16100;BME280;8154;50.830;12.082;2022-11-20T05:41:30;98932.34;;;20.26;38.42
16100;BME280;8154;50.830;12.082;2022-11-20T05:44:13;98935.75;;;20.20;38.46
16100;BME280;8154;50.830;12.082;2022-11-20T05:46:58;98927.22;;;20.25;38.55
16100;BME280;8154;50.830;12.082;2022-11-20T05:49:42;98925.19;;;20.27;38.29
16100;BME280;8154;50.830;12.082;2022-11-20T05:52:29;98919.88;;;20.27;38.45
16100;BME280;8154;50.830;12.082;2022-11-20T05:55:14;98920.91;;;20.26;38.49
16100;BME280;8154;50.830;12.082;2022-11-20T05:57:58;98924.94;;;20.22;38.51
16100;BME280;8154;50.830;12.082;2022-11-20T06:00:42;98924.31;;;20.20;38.42
16100;BME280;8154;50.830;12.082;2022-11-20T06:03:27;98915.97;;;20.08;38.63
16100;BME280;8154;50.830;12.082;2022-11-20T06:06:12;98921.44;;;20.07;38.84
16100;BME280;8154;50.830;12.082;2022-11-20T06:08:57;98921.19;;;20.16;38.57
16100;BME280;8154;50.830;12.082;2022-11-20T06:11:42;98923.47;;;20.19;38.59
16100;BME280;8154;50.830;12.082;2022-11-20T06:14:26;98917.00;;;20.22;38.35
16100;BME280;8154;50.830;12.082;2022-11-20T06:17:11;98917.78;;;20.22;38.28
16100;BME280;8154;50.830;12.082;2022-11-20T06:19:55;98912.41;;;20.16;38.49
16100;BME280;8154;50.830;12.082;2022-11-20T06:22:39;98924.88;;;20.15;38.52
16100;BME280;8154;50.830;12.082;2022-11-20T06:25:24;98906.56;;;20.06;38.70
16100;BME280;8154;50.830;12.082;2022-11-20T06:28:08;98911.84;;;20.06;38.68
16100;BME280;8154;50.830;12.082;2022-11-20T06:30:53;98924.22;;;20.13;38.36
16100;BME280;8154;50.830;12.082;2022-11-20T06:33:37;98920.09;;;20.11;38.62
16100;BME280;8154;50.830;12.082;2022-11-20T06:36:22;98937.63;;;20.12;38.44
16100;BME280;8154;50.830;12.082;2022-11-20T06:39:07;98930.78;;;20.17;38.41
16100;BME280;8154;50.830;12.082;2022-11-20T06:41:51;98927.59;;;20.22;38.14
16100;BME280;8154;50.830;12.082;2022-11-20T06:44:35;98926.97;;;20.20;38.32
16100;BME280;8154;50.830;12.082;2022-11-20T06:47:19;98940.41;;;20.18;38.18
16100;BME280;8154;50.830;12.082;2022-11-20T06:50:03;98939.56;;;20.18;38.26
16100;BME280;8154;50.830;12.082;2022-11-20T06:52:48;98939.75;;;20.16;38.25
16100;BME280;8154;50.830;12.082;2022-11-20T06:55:32;98938.13;;;20.15;38.45
16100;BME280;8154;50.830;12.082;2022-11-20T06:58:17;98932.44;;;20.18;38.38
16100;BME280;8154;50.830;12.082;2022-11-20T07:01:07;98929.44;;;20.21;38.32
16100;BME280;8154;50.830;12.082;2022-11-20T07:03:51;98924.56;;;20.25;38.10
16100;BME280;8154;50.830;12.082;2022-11-20T07:06:38;98924.94;;;20.22;38.12
16100;BME280;8154;50.830;12.082;2022-11-20T07:09:22;98921.28;;;20.23;38.10
16100;BME280;8154;50.830;12.082;2022-11-20T07:12:06;98925.56;;;20.24;38.09
16100;BME280;8154;50.830;12.082;2022-11-20T07:14:50;98923.66;;;20.18;38.19
16100;BME280;8154;50.830;12.082;2022-11-20T07:17:34;98920.16;;;20.17;38.27
16100;BME280;8154;50.830;12.082;2022-11-20T07:20:18;98926.50;;;20.16;38.43
16100;BME280;8154;50.830;12.082;2022-11-20T07:23:02;98934.28;;;20.18;38.19
16100;BME280;8154;50.830;12.082;2022-11-20T07:25:46;98928.78;;;20.19;38.13
16100;BME280;8154;50.830;12.082;2022-11-20T07:28:31;98926.31;;;20.18;38.27
16100;BME280;8154;50.830;12.082;2022-11-20T07:31:15;98927.34;;;20.17;38.19
16100;BME280;8154;50.830;12.082;2022-11-20T07:33:59;98932.25;;;20.20;38.11
16100;BME280;8154;50.830;12.082;2022-11-20T07:36:43;98919.56;;;20.15;38.23
16100;BME280;8154;50.830;12.082;2022-11-20T07:39:27;98925.84;;;20.14;38.27
16100;BME280;8154;50.830;12.082;2022-11-20T07:42:12;98923.66;;;20.18;38.01
16100;BME280;8154;50.830;12.082;2022-11-20T07:44:56;98920.03;;;20.19;38.12
16100;BME280;8154;50.830;12.082;2022-11-20T07:47:40;98910.00;;;20.21;38.10
16100;BME280;8154;50.830;12.082;2022-11-20T07:50:24;98902.81;;;20.15;38.12
16100;BME280;8154;50.830;12.082;2022-11-20T07:53:09;98900.34;;;20.13;38.23
16100;BME280;8154;50.830;12.082;2022-11-20T07:55:53;98908.13;;;20.15;38.11
16100;BME280;8154;50.830;12.082;2022-11-20T07:58:38;98898.88;;;20.11;38.27
16100;BME280;8154;50.830;12.082;2022-11-20T08:01:22;98897.69;;;20.13;38.25
16100;BME280;8154;50.830;12.082;2022-11-20T08:04:06;98894.47;;;20.18;38.10
16100;BME280;8154;50.830;12.082;2022-11-20T08:06:52;98898.59;;;20.20;37.66
16100;BME280;8154;50.830;12.082;2022-11-20T08:09:36;98901.44;;;20.19;38.04
16100;BME280;8154;50.830;12.082;2022-11-20T08:12:21;98893.50;;;20.19;38.04
16100;BME280;8154;50.830;12.082;2022-11-20T08:15:24;98905.09;;;20.18;38.03
16100;BME280;8154;50.830;12.082;2022-11-20T08:18:10;98899.31;;;20.14;38.12
16100;BME280;8154;50.830;12.082;2022-11-20T08:20:55;98900.50;;;20.12;38.31
16100;BME280;8154;50.830;12.082;2022-11-20T08:23:39;98891.53;;;20.13;38.27
16100;BME280;8154;50.830;12.082;2022-11-20T08:26:24;98892.00;;;20.16;38.11
16100;BME280;8154;50.830;12.082;2022-11-20T08:29:08;98903.44;;;20.17;38.27
16100;BME280;8154;50.830;12.082;2022-11-20T08:31:52;98909.56;;;20.17;38.13
16100;BME280;8154;50.830;12.082;2022-11-20T08:34:37;98902.06;;;20.21;37.96
16100;BME280;8154;50.830;12.082;2022-11-20T08:37:21;98895.88;;;20.14;38.29
16100;BME280;8154;50.830;12.082;2022-11-20T08:40:05;98901.00;;;20.15;38.29
16100;BME280;8154;50.830;12.082;2022-11-20T08:42:50;98902.63;;;20.16;38.15
16100;BME280;8154;50.830;12.082;2022-11-20T08:45:34;98904.44;;;20.16;37.95
16100;BME280;8154;50.830;12.082;2022-11-20T08:48:18;98907.28;;;20.14;38.08
16100;BME280;8154;50.830;12.082;2022-11-20T08:51:03;98913.41;;;20.15;38.05
16100;BME280;8154;50.830;12.082;2022-11-20T08:53:47;98906.91;;;20.17;38.13
16100;BME280;8154;50.830;12.082;2022-11-20T08:56:33;98899.78;;;20.18;38.06
16100;BME280;8154;50.830;12.082;2022-11-20T08:59:17;98893.84;;;20.16;38.09
16100;BME280;8154;50.830;12.082;2022-11-20T09:02:01;98894.19;;;20.13;38.12
16100;BME280;8154;50.830;12.082;2022-11-20T09:04:46;98898.53;;;20.14;38.35
16100;BME280;8154;50.830;12.082;2022-11-20T09:07:31;98898.88;;;20.11;38.21
16100;BME280;8154;50.830;12.082;2022-11-20T09:10:16;98898.53;;;20.14;38.19
16100;BME280;8154;50.830;12.082;2022-11-20T09:13:00;98887.72;;;20.15;38.10
16100;BME280;8154;50.830;12.082;2022-11-20T09:15:44;98890.00;;;20.18;38.15
16100;BME280;8154;50.830;12.082;2022-11-20T09:18:29;98889.72;;;20.13;38.19
16100;BME280;8154;50.830;12.082;2022-11-20T09:21:15;98890.56;;;20.14;38.25
16100;BME280;8154;50.830;12.082;2022-11-20T09:23:59;98896.41;;;20.09;38.34
16100;BME280;8154;50.830;12.082;2022-11-20T09:26:43;98896.41;;;20.09;38.35
16100;BME280;8154;50.830;12.082;2022-11-20T09:29:28;98907.81;;;20.10;38.15
16100;BME280;8154;50.830;12.082;2022-11-20T09:32:13;98901.53;;;20.11;38.18
16100;BME280;8154;50.830;12.082;2022-11-20T09:34:57;98902.13;;;20.13;38.09
16100;BME280;8154;50.830;12.082;2022-11-20T09:37:41;98904.97;;;20.11;38.18
16100;BME280;8154;50.830;12.082;2022-11-20T09:40:28;98897.19;;;20.10;38.22
16100;BME280;8154;50.830;12.082;2022-11-20T09:43:18;98891.72;;;20.11;38.25
16100;BME280;8154;50.830;12.082;2022-11-20T09:46:29;98883.31;;;20.08;38.10
16100;BME280;8154;50.830;12.082;2022-11-20T09:55:13;98885.34;;;20.06;38.22
16100;BME280;8154;50.830;12.082;2022-11-20T09:57:59;98889.81;;;20.05;38.32
16100;BME280;8154;50.830;12.082;2022-11-20T10:00:44;98883.31;;;20.08;38.31
16100;BME280;8154;50.830;12.082;2022-11-20T10:03:44;98881.84;;;20.05;38.32
16100;BME280;8154;50.830;12.082;2022-11-20T10:06:30;98878.41;;;20.05;38.34
16100;BME280;8154;50.830;12.082;2022-11-20T10:09:22;98879.00;;;20.07;38.31
16100;BME280;8154;50.830;12.082;2022-11-20T10:21:24;98859.00;;;20.04;38.45
16100;BME280;8154;50.830;12.082;2022-11-20T10:30:14;98845.34;;;20.07;38.57
16100;BME280;8154;50.830;12.082;2022-11-20T10:33:05;98844.97;;;20.10;38.30
16100;BME280;8154;50.830;12.082;2022-11-20T10:38:53;98843.34;;;20.09;38.39
16100;BME280;8154;50.830;12.082;2022-11-20T10:41:41;98838.84;;;20.10;38.38
16100;BME280;8154;50.830;12.082;2022-11-20T10:44:29;98843.53;;;20.08;38.33
16100;BME280;8154;50.830;12.082;2022-11-20T10:47:33;98840.31;;;20.12;38.29
16100;BME280;8154;50.830;12.082;2022-11-20T10:50:21;98846.19;;;20.08;38.42
16100;BME280;8154;50.830;12.082;2022-11-20T10:55:57;98841.69;;;20.08;38.34
16100;BME280;8154;50.830;12.082;2022-11-20T11:01:46;98832.75;;;20.09;38.41
16100;BME280;8154;50.830;12.082;2022-11-20T11:04:37;98839.47;;;20.12;38.45
16100;BME280;8154;50.830;12.082;2022-11-20T11:07:28;98832.53;;;20.11;38.36
16100;BME280;8154;50.830;12.082;2022-11-20T11:13:26;98829.91;;;20.11;38.42
16100;BME280;8154;50.830;12.082;2022-11-20T11:16:25;98825.03;;;20.14;38.33
16100;BME280;8154;50.830;12.082;2022-11-20T11:19:13;98812.63;;;20.15;38.42
16100;BME280;8154;50.830;12.082;2022-11-20T11:21:59;98815.25;;;20.15;38.44
16100;BME280;8154;50.830;12.082;2022-11-20T11:24:52;98818.09;;;20.13;38.41
16100;BME280;8154;50.830;12.082;2022-11-20T11:27:46;98820.28;;;20.10;38.45
16100;BME280;8154;50.830;12.082;2022-11-20T11:30:42;98825.19;;;20.13;38.54
16100;BME280;8154;50.830;12.082;2022-11-20T11:33:28;98811.72;;;20.08;38.66
16100;BME280;8154;50.830;12.082;2022-11-20T11:36:19;98816.81;;;20.09;38.66
16100;BME280;8154;50.830;12.082;2022-11-20T11:39:10;98810.50;;;20.10;38.56
16100;BME280;8154;50.830;12.082;2022-11-20T11:41:56;98807.66;;;20.12;38.51
16100;BME280;8154;50.830;12.082;2022-11-20T11:44:44;98814.25;;;20.16;38.28
16100;BME280;8154;50.830;12.082;2022-11-20T11:47:48;98803.38;;;20.11;38.53
16100;BME280;8154;50.830;12.082;2022-11-20T11:50:35;98803.97;;;20.13;38.54
16100;BME280;8154;50.830;12.082;2022-11-20T11:53:21;98802.19;;;20.13;38.53
16100;BME280;8154;50.830;12.082;2022-11-20T11:56:11;98800.38;;;20.14;38.66
16100;BME280;8154;50.830;12.082;2022-11-20T11:59:01;98795.06;;;20.14;38.33
16100;BME280;8154;50.830;12.082;2022-11-20T12:01:57;98787.25;;;20.12;38.50
16100;BME280;8154;50.830;12.082;2022-11-20T12:04:47;98788.44;;;20.10;38.46
16100;BME280;8154;50.830;12.082;2022-11-20T12:10:56;98779.69;;;20.09;38.49
16100;BME280;8154;50.830;12.082;2022-11-20T12:14:41;98775.66;;;20.13;38.58
16100;BME280;8154;50.830;12.082;2022-11-20T12:17:12;98772.16;;;20.13;38.81
16100;BME280;8154;50.830;12.082;2022-11-20T12:19:57;98774.25;;;20.17;38.42
16100;BME280;8154;50.830;12.082;2022-11-20T12:22:55;98765.03;;;20.13;38.42
16100;BME280;8154;50.830;12.082;2022-11-20T12:25:42;98767.88;;;20.12;38.53
16100;BME280;8154;50.830;12.082;2022-11-20T12:28:44;98760.56;;;20.14;38.56
16100;BME280;8154;50.830;12.082;2022-11-20T12:44:08;98747.91;;;20.16;38.48
16100;BME280;8154;50.830;12.082;2022-11-20T12:57:23;98756.22;;;20.13;38.55
16100;BME280;8154;50.830;12.082;2022-11-20T13:00:18;98753.88;;;20.18;38.66
16100;BME280;8154;50.830;12.082;2022-11-20T13:03:32;98758.19;;;20.19;38.61
16100;BME280;8154;50.830;12.082;2022-11-20T13:06:18;98766.28;;;20.17;38.50
16100;BME280;8154;50.830;12.082;2022-11-20T13:09:08;98764.66;;;20.16;38.58
16100;BME280;8154;50.830;12.082;2022-11-20T13:12:12;98761.00;;;20.17;38.59
16100;BME280;8154;50.830;12.082;2022-11-20T13:18:01;98768.94;;;20.17;38.44
16100;BME280;8154;50.830;12.082;2022-11-20T13:20:46;98768.53;;;20.14;38.59
16100;BME280;8154;50.830;12.082;2022-11-20T13:23:33;98771.19;;;20.14;38.73
16100;BME280;8154;50.830;12.082;2022-11-20T13:26:22;98772.81;;;20.15;38.58
16100;BME280;8154;50.830;12.082;2022-11-20T13:29:25;98761.81;;;20.18;38.57
16100;BME280;8154;50.830;12.082;2022-11-20T13:32:17;98769.97;;;20.16;38.61
16100;BME280;8154;50.830;12.082;2022-11-20T13:35:04;98770.16;;;20.15;38.63
16100;BME280;8154;50.830;12.082;2022-11-20T13:38:00;98770.81;;;20.17;38.54
16100;BME280;8154;50.830;12.082;2022-11-20T13:40:57;98767.50;;;20.15;38.65
16100;BME280;8154;50.830;12.082;2022-11-20T13:43:42;98765.41;;;20.10;38.77
16100;BME280;8154;50.830;12.082;2022-11-20T13:46:41;98762.41;;;20.13;38.75
16100;BME280;8154;50.830;12.082;2022-11-20T13:49:37;98757.53;;;20.17;38.64
16100;BME280;8154;50.830;12.082;2022-11-20T14:01:23;98757.34;;;20.18;38.57
16100;BME280;8154;50.830;12.082;2022-11-20T14:04:09;98764.84;;;20.15;38.48
16100;BME280;8154;50.830;12.082;2022-11-20T14:06:58;98755.63;;;20.11;38.62
16100;BME280;8154;50.830;12.082;2022-11-20T14:09:54;98758.88;;;20.13;38.61
16100;BME280;8154;50.830;12.082;2022-11-20T14:12:39;98752.78;;;20.12;38.69
16100;BME280;8154;50.830;12.082;2022-11-20T14:15:29;98762.56;;;20.12;38.63
16100;BME280;8154;50.830;12.082;2022-11-20T14:18:19;98756.22;;;20.13;38.77
16100;BME280;8154;50.830;12.082;2022-11-20T14:21:05;98754.59;;;20.12;38.46
16100;BME280;8154;50.830;12.082;2022-11-20T14:23:52;98750.69;;;20.08;38.84
16100;BME280;8154;50.830;12.082;2022-11-20T14:26:41;98755.16;;;20.07;38.81
16100;BME280;8154;50.830;12.082;2022-11-20T14:29:33;98761.13;;;20.09;38.70
16100;BME280;8154;50.830;12.082;2022-11-20T14:32:28;98764.56;;;20.10;38.71
16100;BME280;8154;50.830;12.082;2022-11-20T14:35:29;98759.25;;;20.10;38.83
16100;BME280;8154;50.830;12.082;2022-11-20T14:38:16;98752.13;;;20.10;38.64
16100;BME280;8154;50.830;12.082;2022-11-20T14:41:09;98751.13;;;20.11;38.51
16100;BME280;8154;50.830;12.082;2022-11-20T14:43:59;98755.63;;;20.11;38.63
16100;BME280;8154;50.830;12.082;2022-11-20T14:46:44;98764.38;;;20.11;38.57
16100;BME280;8154;50.830;12.082;2022-11-20T14:49:30;98755.63;;;20.11;38.72
16100;BME280;8154;50.830;12.082;2022-11-20T14:52:21;98738.44;;;20.07;38.80
16100;BME280;8154;50.830;12.082;2022-11-20T14:55:08;98741.34;;;20.12;38.79
16100;BME280;8154;50.830;12.082;2022-11-20T14:57:57;98747.66;;;20.11;38.65
16100;BME280;8154;50.830;12.082;2022-11-20T15:03:40;98745.00;;;20.11;38.58
16100;BME280;8154;50.830;12.082;2022-11-20T15:06:26;98744.00;;;20.12;38.50
16100;BME280;8154;50.830;12.082;2022-11-20T15:09:14;98748.28;;;20.13;38.72
16100;BME280;8154;50.830;12.082;2022-11-20T15:12:01;98741.34;;;20.12;38.53
16100;BME280;8154;50.830;12.082;2022-11-20T15:14:47;98745.81;;;20.11;38.52
16100;BME280;8154;50.830;12.082;2022-11-20T15:17:35;98746.63;;;20.12;38.55
16100;BME280;8154;50.830;12.082;2022-11-20T15:20:25;98750.50;;;20.09;38.80
16100;BME280;8154;50.830;12.082;2022-11-20T15:23:12;98751.13;;;20.11;38.71
16100;BME280;8154;50.830;12.082;2022-11-20T15:25:59;98754.34;;;20.07;38.72
16100;BME280;8154;50.830;12.082;2022-11-20T15:28:45;98746.00;;;20.10;38.54
16100;BME280;8154;50.830;12.082;2022-11-20T15:31:34;98748.84;;;20.08;38.60
16100;BME280;8154;50.830;12.082;2022-11-20T15:34:18;98731.50;;;20.06;38.71
16100;BME280;8154;50.830;12.082;2022-11-20T15:37:02;98734.78;;;20.08;38.67
16100;BME280;8154;50.830;12.082;2022-11-20T15:39:47;98731.69;;;20.04;38.97
16100;BME280;8154;50.830;12.082;2022-11-20T15:42:31;98730.28;;;20.08;38.64
16100;BME280;8154;50.830;12.082;2022-11-20T15:45:16;98729.09;;;20.11;38.69
16100;BME280;8154;50.830;12.082;2022-11-20T15:48:00;98724.16;;;20.08;38.55
16100;BME280;8154;50.830;12.082;2022-11-20T15:53:48;98726.25;;;20.12;38.42
16100;BME280;8154;50.830;12.082;2022-11-20T15:56:33;98724.16;;;20.08;38.62
16100;BME280;8154;50.830;12.082;2022-11-20T15:59:17;98717.84;;;20.09;38.54
16100;BME280;8154;50.830;12.082;2022-11-20T16:02:02;98720.88;;;20.06;38.78
16100;BME280;8154;50.830;12.082;2022-11-20T16:04:46;98712.09;;;20.05;38.70
16100;BME280;8154;50.830;12.082;2022-11-20T16:07:31;98700.88;;;20.03;38.69